sensor_id;sensor_type;location;lat;lon;timestamp;P1;durP1;ratioP1;P2;durP2;ratioP2
2061;SDS011;11070;51.336;12.340;2022-11-20T00:01:27;51.25;;;28.23;;
2061;SDS011;11070;51.336;12.340;2022-11-20T00:03:54;39.13;;;21.88;;
2061;SDS011;11070;51.336;12.340;2022-11-20T00:06:21;68.60;;;36.95;;
2061;SDS011;11070;51.336;12.340;2022-11-20T00:08:48;37.78;;;21.70;;
2061;SDS011;11070;51.336;12.340;2022-11-20T00:11:16;48.35;;;23.77;;
2061;SDS011;11070;51.336;12.340;2022-11-20T00:13:54;57.70;;;30.35;;
2061;SDS011;11070;51.336;12.340;2022-11-20T00:16:23;43.03;;;24.35;;
2061;SDS011;11070;51.336;12.340;2022-11-20T00:18:50;39.95;;;24.00;;
2061;SDS011;11070;51.336;12.340;2022-11-20T00:21:25;44.13;;;23.92;;
2061;SDS011;11070;51.336;12.340;2022-11-20T00:23:53;45.63;;;24.58;;
2061;SDS011;11070;51.336;12.340;2022-11-20T00:26:20;46.58;;;24.15;;
2061;SDS011;11070;51.336;12.340;2022-11-20T00:28:54;57.33;;;29.48;;
2061;SDS011;11070;51.336;12.340;2022-11-20T00:31:23;54.80;;;29.42;;
2061;SDS011;11070;51.336;12.340;2022-11-20T00:33:50;55.28;;;29.95;;
2061;SDS011;11070;51.336;12.340;2022-11-20T00:36:18;46.42;;;26.05;;
2061;SDS011;11070;51.336;12.340;2022-11-20T00:38:52;45.13;;;24.00;;
2061;SDS011;11070;51.336;12.340;2022-11-20T00:41:20;47.33;;;26.50;;
2061;SDS011;11070;51.336;12.340;2022-11-20T00:43:55;49.78;;;27.42;;
2061;SDS011;11070;51.336;12.340;2022-11-20T00:46:24;42.53;;;24.92;;
2061;SDS011;11070;51.336;12.340;2022-11-20T00:48:51;52.45;;;29.77;;
2061;SDS011;11070;51.336;12.340;2022-11-20T00:51:24;54.75;;;28.65;;
2061;SDS011;11070;51.336;12.340;2022-11-20T00:53:51;65.70;;;32.25;;
2061;SDS011;11070;51.336;12.340;2022-11-20T00:56:17;55.33;;;28.80;;
2061;SDS011;11070;51.336;12.340;2022-11-20T00:58:45;94.88;;;46.55;;
2061;SDS011;11070;51.336;12.340;2022-11-20T01:04:04;66.57;;;35.17;;
2061;SDS011;11070;51.336;12.340;2022-11-20T01:06:34;102.72;;;47.67;;
2061;SDS011;11070;51.336;12.340;2022-11-20T01:09:14;136.07;;;65.88;;
2061;SDS011;11070;51.336;12.340;2022-11-20T01:11:43;70.40;;;35.83;;
2061;SDS011;11070;51.336;12.340;2022-11-20T01:14:17;58.47;;;31.60;;
2061;SDS011;11070;51.336;12.340;2022-11-20T01:17:04;61.08;;;32.88;;
2061;SDS011;11070;51.336;12.340;2022-11-20T01:19:32;39.15;;;22.58;;
2061;SDS011;11070;51.336;12.340;2022-11-20T01:21:57;42.80;;;23.45;;
2061;SDS011;11070;51.336;12.340;2022-11-20T01:24:32;42.85;;;23.30;;
2061;SDS011;11070;51.336;12.340;2022-11-20T01:29:48;41.60;;;23.75;;
2061;SDS011;11070;51.336;12.340;2022-11-20T01:35:16;43.22;;;22.80;;
2061;SDS011;11070;51.336;12.340;2022-11-20T01:37:49;41.15;;;22.60;;
2061;SDS011;11070;51.336;12.340;2022-11-20T01:40:16;37.03;;;21.90;;
2061;SDS011;11070;51.336;12.340;2022-11-20T01:42:53;42.60;;;22.17;;
2061;SDS011;11070;51.336;12.340;2022-11-20T01:48:16;34.17;;;20.73;;
2061;SDS011;11070;51.336;12.340;2022-11-20T01:50:51;40.78;;;23.17;;
2061;SDS011;11070;51.336;12.340;2022-11-20T01:53:20;39.00;;;22.98;;
2061;SDS011;11070;51.336;12.340;2022-11-20T01:55:50;41.13;;;22.92;;
2061;SDS011;11070;51.336;12.340;2022-11-20T01:58:26;39.90;;;21.50;;
2061;SDS011;11070;51.336;12.340;2022-11-20T02:01:03;42.78;;;22.98;;
2061;SDS011;11070;51.336;12.340;2022-11-20T02:03:32;39.78;;;22.88;;
2061;SDS011;11070;51.336;12.340;2022-11-20T02:06:10;40.67;;;22.70;;
2061;SDS011;11070;51.336;12.340;2022-11-20T02:09:20;42.60;;;21.88;;
2061;SDS011;11070;51.336;12.340;2022-11-20T02:11:59;41.20;;;21.13;;
2061;SDS011;11070;51.336;12.340;2022-11-20T02:14:26;41.88;;;22.60;;
2061;SDS011;11070;51.336;12.340;2022-11-20T02:16:55;38.65;;;20.38;;
2061;SDS011;11070;51.336;12.340;2022-11-20T02:19:31;42.90;;;22.80;;
2061;SDS011;11070;51.336;12.340;2022-11-20T02:22:02;37.80;;;20.80;;
2061;SDS011;11070;51.336;12.340;2022-11-20T02:24:40;40.25;;;22.10;;
2061;SDS011;11070;51.336;12.340;2022-11-20T02:27:12;37.50;;;21.98;;
2061;SDS011;11070;51.336;12.340;2022-11-20T02:32:23;41.25;;;24.10;;
2061;SDS011;11070;51.336;12.340;2022-11-20T02:34:51;42.75;;;23.23;;
2061;SDS011;11070;51.336;12.340;2022-11-20T02:37:16;44.93;;;24.13;;
2061;SDS011;11070;51.336;12.340;2022-11-20T02:39:44;47.42;;;23.77;;
2061;SDS011;11070;51.336;12.340;2022-11-20T02:42:12;45.47;;;24.27;;
2061;SDS011;11070;51.336;12.340;2022-11-20T02:44:38;45.60;;;23.90;;
2061;SDS011;11070;51.336;12.340;2022-11-20T02:47:04;44.33;;;26.00;;
2061;SDS011;11070;51.336;12.340;2022-11-20T02:49:33;49.15;;;25.13;;
2061;SDS011;11070;51.336;12.340;2022-11-20T02:51:59;50.63;;;25.90;;
2061;SDS011;11070;51.336;12.340;2022-11-20T02:54:25;48.40;;;25.77;;
2061;SDS011;11070;51.336;12.340;2022-11-20T02:56:50;48.00;;;26.07;;
2061;SDS011;11070;51.336;12.340;2022-11-20T02:59:16;49.25;;;26.40;;
2061;SDS011;11070;51.336;12.340;2022-11-20T03:01:45;47.47;;;24.00;;
2061;SDS011;11070;51.336;12.340;2022-11-20T03:04:11;44.55;;;24.50;;
2061;SDS011;11070;51.336;12.340;2022-11-20T03:06:36;49.43;;;25.70;;
2061;SDS011;11070;51.336;12.340;2022-11-20T03:09:02;52.80;;;26.57;;
2061;SDS011;11070;51.336;12.340;2022-11-20T03:11:28;49.73;;;26.47;;
2061;SDS011;11070;51.336;12.340;2022-11-20T03:13:53;49.87;;;27.23;;
2061;SDS011;11070;51.336;12.340;2022-11-20T03:16:20;49.30;;;27.10;;
2061;SDS011;11070;51.336;12.340;2022-11-20T03:18:47;55.83;;;30.10;;
2061;SDS011;11070;51.336;12.340;2022-11-20T03:21:13;55.77;;;29.10;;
2061;SDS011;11070;51.336;12.340;2022-11-20T03:23:45;50.38;;;27.40;;
2061;SDS011;11070;51.336;12.340;2022-11-20T03:26:15;54.38;;;28.10;;
2061;SDS011;11070;51.336;12.340;2022-11-20T03:28:50;50.58;;;27.30;;
2061;SDS011;11070;51.336;12.340;2022-11-20T03:31:18;53.22;;;28.15;;
2061;SDS011;11070;51.336;12.340;2022-11-20T03:33:46;55.35;;;27.48;;
2061;SDS011;11070;51.336;12.340;2022-11-20T03:36:13;52.72;;;27.35;;
2061;SDS011;11070;51.336;12.340;2022-11-20T03:38:40;59.70;;;28.60;;
2061;SDS011;11070;51.336;12.340;2022-11-20T03:41:07;56.25;;;26.23;;
2061;SDS011;11070;51.336;12.340;2022-11-20T03:43:35;44.10;;;23.90;;
2061;SDS011;11070;51.336;12.340;2022-11-20T03:46:01;48.03;;;24.83;;
2061;SDS011;11070;51.336;12.340;2022-11-20T03:48:28;47.53;;;24.70;;
2061;SDS011;11070;51.336;12.340;2022-11-20T03:53:46;48.50;;;23.13;;
2061;SDS011;11070;51.336;12.340;2022-11-20T03:56:14;42.80;;;22.83;;
2061;SDS011;11070;51.336;12.340;2022-11-20T03:58:41;48.47;;;24.45;;
2061;SDS011;11070;51.336;12.340;2022-11-20T04:01:09;49.72;;;24.05;;
2061;SDS011;11070;51.336;12.340;2022-11-20T04:03:40;43.47;;;23.67;;
2061;SDS011;11070;51.336;12.340;2022-11-20T04:06:07;50.53;;;26.45;;
2061;SDS011;11070;51.336;12.340;2022-11-20T04:08:41;44.63;;;24.10;;
2061;SDS011;11070;51.336;12.340;2022-11-20T04:11:15;45.55;;;24.20;;
2061;SDS011;11070;51.336;12.340;2022-11-20T04:13:45;45.17;;;24.52;;
2061;SDS011;11070;51.336;12.340;2022-11-20T04:16:12;49.92;;;24.30;;
2061;SDS011;11070;51.336;12.340;2022-11-20T04:18:38;49.30;;;25.30;;
2061;SDS011;11070;51.336;12.340;2022-11-20T04:21:08;49.05;;;25.20;;
2061;SDS011;11070;51.336;12.340;2022-11-20T04:23:34;47.00;;;25.55;;
2061;SDS011;11070;51.336;12.340;2022-11-20T04:26:07;51.63;;;26.52;;
2061;SDS011;11070;51.336;12.340;2022-11-20T04:28:34;49.25;;;24.90;;
2061;SDS011;11070;51.336;12.340;2022-11-20T04:33:29;49.22;;;25.02;;
2061;SDS011;11070;51.336;12.340;2022-11-20T04:35:55;46.47;;;24.27;;
2061;SDS011;11070;51.336;12.340;2022-11-20T04:38:24;62.20;;;27.17;;
2061;SDS011;11070;51.336;12.340;2022-11-20T04:40:50;48.30;;;26.47;;
2061;SDS011;11070;51.336;12.340;2022-11-20T04:43:16;50.13;;;25.73;;
2061;SDS011;11070;51.336;12.340;2022-11-20T04:45:41;55.67;;;26.60;;
2061;SDS011;11070;51.336;12.340;2022-11-20T04:48:07;54.87;;;28.03;;
2061;SDS011;11070;51.336;12.340;2022-11-20T04:50:33;56.00;;;28.03;;
2061;SDS011;11070;51.336;12.340;2022-11-20T04:52:58;61.37;;;27.77;;
2061;SDS011;11070;51.336;12.340;2022-11-20T04:55:24;51.67;;;26.60;;
2061;SDS011;11070;51.336;12.340;2022-11-20T04:57:50;54.27;;;27.50;;
2061;SDS011;11070;51.336;12.340;2022-11-20T05:00:16;53.75;;;28.25;;
2061;SDS011;11070;51.336;12.340;2022-11-20T05:02:42;53.87;;;27.60;;
2061;SDS011;11070;51.336;12.340;2022-11-20T05:05:07;58.20;;;29.03;;
2061;SDS011;11070;51.336;12.340;2022-11-20T05:07:33;58.10;;;29.90;;
2061;SDS011;11070;51.336;12.340;2022-11-20T05:09:59;53.27;;;27.63;;
2061;SDS011;11070;51.336;12.340;2022-11-20T05:12:24;60.27;;;27.70;;
2061;SDS011;11070;51.336;12.340;2022-11-20T05:14:50;58.13;;;28.00;;
2061;SDS011;11070;51.336;12.340;2022-11-20T05:17:16;53.47;;;27.33;;
2061;SDS011;11070;51.336;12.340;2022-11-20T05:19:41;53.60;;;27.07;;
2061;SDS011;11070;51.336;12.340;2022-11-20T05:22:07;54.53;;;27.13;;
2061;SDS011;11070;51.336;12.340;2022-11-20T05:24:32;51.40;;;26.53;;
2061;SDS011;11070;51.336;12.340;2022-11-20T05:26:58;57.13;;;27.00;;
2061;SDS011;11070;51.336;12.340;2022-11-20T05:29:24;52.70;;;27.37;;
2061;SDS011;11070;51.336;12.340;2022-11-20T05:31:49;53.60;;;26.10;;
2061;SDS011;11070;51.336;12.340;2022-11-20T05:34:15;57.97;;;27.73;;
2061;SDS011;11070;51.336;12.340;2022-11-20T05:36:41;50.03;;;24.60;;
2061;SDS011;11070;51.336;12.340;2022-11-20T05:39:06;55.27;;;27.20;;
2061;SDS011;11070;51.336;12.340;2022-11-20T05:41:32;50.97;;;26.23;;
2061;SDS011;11070;51.336;12.340;2022-11-20T05:43:58;52.73;;;25.30;;
2061;SDS011;11070;51.336;12.340;2022-11-20T05:46:24;54.07;;;26.10;;
2061;SDS011;11070;51.336;12.340;2022-11-20T05:48:50;56.17;;;26.42;;
2061;SDS011;11070;51.336;12.340;2022-11-20T05:51:16;55.00;;;27.27;;
2061;SDS011;11070;51.336;12.340;2022-11-20T05:53:43;50.28;;;26.55;;
2061;SDS011;11070;51.336;12.340;2022-11-20T05:56:13;50.47;;;26.70;;
2061;SDS011;11070;51.336;12.340;2022-11-20T05:58:41;51.03;;;25.35;;
2061;SDS011;11070;51.336;12.340;2022-11-20T06:03:35;58.70;;;28.13;;
2061;SDS011;11070;51.336;12.340;2022-11-20T06:06:13;55.55;;;27.65;;
2061;SDS011;11070;51.336;12.340;2022-11-20T06:08:39;49.05;;;25.40;;
2061;SDS011;11070;51.336;12.340;2022-11-20T06:11:06;53.37;;;26.70;;
2061;SDS011;11070;51.336;12.340;2022-11-20T06:13:33;53.70;;;27.10;;
2061;SDS011;11070;51.336;12.340;2022-11-20T06:15:59;56.75;;;28.88;;
2061;SDS011;11070;51.336;12.340;2022-11-20T06:18:26;56.30;;;27.00;;
2061;SDS011;11070;51.336;12.340;2022-11-20T06:21:09;58.85;;;29.38;;
2061;SDS011;11070;51.336;12.340;2022-11-20T06:23:37;57.63;;;29.25;;
2061;SDS011;11070;51.336;12.340;2022-11-20T06:26:04;60.83;;;27.75;;
2061;SDS011;11070;51.336;12.340;2022-11-20T06:28:32;57.70;;;28.58;;
2061;SDS011;11070;51.336;12.340;2022-11-20T06:30:58;55.45;;;28.45;;
2061;SDS011;11070;51.336;12.340;2022-11-20T06:33:24;55.88;;;28.75;;
2061;SDS011;11070;51.336;12.340;2022-11-20T06:35:50;58.95;;;29.02;;
2061;SDS011;11070;51.336;12.340;2022-11-20T06:38:16;56.33;;;27.50;;
2061;SDS011;11070;51.336;12.340;2022-11-20T06:40:42;55.97;;;27.17;;
2061;SDS011;11070;51.336;12.340;2022-11-20T06:43:08;59.20;;;28.30;;
2061;SDS011;11070;51.336;12.340;2022-11-20T06:45:35;53.88;;;26.60;;
2061;SDS011;11070;51.336;12.340;2022-11-20T06:48:01;51.50;;;26.50;;
2061;SDS011;11070;51.336;12.340;2022-11-20T06:50:26;53.73;;;26.27;;
2061;SDS011;11070;51.336;12.340;2022-11-20T06:52:52;56.87;;;27.37;;
2061;SDS011;11070;51.336;12.340;2022-11-20T06:55:18;59.00;;;27.80;;
2061;SDS011;11070;51.336;12.340;2022-11-20T06:57:43;56.20;;;28.43;;
2061;SDS011;11070;51.336;12.340;2022-11-20T07:00:09;63.17;;;30.43;;
2061;SDS011;11070;51.336;12.340;2022-11-20T07:02:37;54.40;;;27.55;;
2061;SDS011;11070;51.336;12.340;2022-11-20T07:05:03;57.87;;;28.30;;
2061;SDS011;11070;51.336;12.340;2022-11-20T07:07:29;54.47;;;27.27;;
2061;SDS011;11070;51.336;12.340;2022-11-20T07:09:55;54.40;;;26.53;;
2061;SDS011;11070;51.336;12.340;2022-11-20T07:12:21;47.97;;;24.67;;
2061;SDS011;11070;51.336;12.340;2022-11-20T07:14:46;45.73;;;23.50;;
2061;SDS011;11070;51.336;12.340;2022-11-20T07:17:12;46.40;;;25.60;;
2061;SDS011;11070;51.336;12.340;2022-11-20T07:19:38;41.13;;;24.05;;
2061;SDS011;11070;51.336;12.340;2022-11-20T07:22:04;37.83;;;22.20;;
2061;SDS011;11070;51.336;12.340;2022-11-20T07:24:29;43.63;;;23.17;;
2061;SDS011;11070;51.336;12.340;2022-11-20T07:26:55;45.20;;;23.37;;
2061;SDS011;11070;51.336;12.340;2022-11-20T07:29:20;42.90;;;22.40;;
2061;SDS011;11070;51.336;12.340;2022-11-20T07:31:46;45.17;;;23.50;;
2061;SDS011;11070;51.336;12.340;2022-11-20T07:34:12;38.60;;;21.77;;
2061;SDS011;11070;51.336;12.340;2022-11-20T07:36:41;42.28;;;21.65;;
2061;SDS011;11070;51.336;12.340;2022-11-20T07:39:06;35.23;;;19.30;;
2061;SDS011;11070;51.336;12.340;2022-11-20T07:41:32;35.40;;;20.60;;
2061;SDS011;11070;51.336;12.340;2022-11-20T07:43:58;37.60;;;21.50;;
2061;SDS011;11070;51.336;12.340;2022-11-20T07:46:26;36.80;;;20.67;;
2061;SDS011;11070;51.336;12.340;2022-11-20T07:48:52;40.33;;;21.70;;
2061;SDS011;11070;51.336;12.340;2022-11-20T07:51:17;38.23;;;21.10;;
2061;SDS011;11070;51.336;12.340;2022-11-20T07:53:44;37.05;;;22.27;;
2061;SDS011;11070;51.336;12.340;2022-11-20T07:56:12;36.67;;;20.70;;
2061;SDS011;11070;51.336;12.340;2022-11-20T07:58:39;39.17;;;21.80;;
2061;SDS011;11070;51.336;12.340;2022-11-20T08:01:08;36.20;;;21.60;;
2061;SDS011;11070;51.336;12.340;2022-11-20T08:03:34;40.97;;;20.73;;
2061;SDS011;11070;51.336;12.340;2022-11-20T08:06:02;39.35;;;21.25;;
2061;SDS011;11070;51.336;12.340;2022-11-20T08:08:29;42.20;;;22.90;;
2061;SDS011;11070;51.336;12.340;2022-11-20T08:10:57;42.10;;;23.80;;
2061;SDS011;11070;51.336;12.340;2022-11-20T08:13:42;40.00;;;21.38;;
2061;SDS011;11070;51.336;12.340;2022-11-20T08:16:30;40.08;;;20.92;;
2061;SDS011;11070;51.336;12.340;2022-11-20T08:18:56;36.67;;;20.73;;
2061;SDS011;11070;51.336;12.340;2022-11-20T08:21:22;39.27;;;22.10;;
2061;SDS011;11070;51.336;12.340;2022-11-20T08:23:48;37.65;;;21.58;;
2061;SDS011;11070;51.336;12.340;2022-11-20T08:26:14;35.93;;;20.30;;
2061;SDS011;11070;51.336;12.340;2022-11-20T08:28:40;41.87;;;21.13;;
2061;SDS011;11070;51.336;12.340;2022-11-20T08:31:06;36.30;;;22.10;;
2061;SDS011;11070;51.336;12.340;2022-11-20T08:33:35;33.38;;;21.00;;
2061;SDS011;11070;51.336;12.340;2022-11-20T08:36:01;36.20;;;20.67;;
2061;SDS011;11070;51.336;12.340;2022-11-20T08:38:31;37.55;;;19.83;;
2061;SDS011;11070;51.336;12.340;2022-11-20T08:40:58;32.25;;;19.85;;
2061;SDS011;11070;51.336;12.340;2022-11-20T08:43:43;35.47;;;20.58;;
2061;SDS011;11070;51.336;12.340;2022-11-20T08:46:09;34.95;;;20.25;;
2061;SDS011;11070;51.336;12.340;2022-11-20T08:48:36;33.58;;;19.90;;
2061;SDS011;11070;51.336;12.340;2022-11-20T08:51:01;32.50;;;19.67;;
2061;SDS011;11070;51.336;12.340;2022-11-20T08:53:30;30.50;;;18.98;;
2061;SDS011;11070;51.336;12.340;2022-11-20T08:56:00;27.50;;;18.60;;
2061;SDS011;11070;51.336;12.340;2022-11-20T08:58:26;29.75;;;18.48;;
2061;SDS011;11070;51.336;12.340;2022-11-20T09:00:55;27.67;;;17.55;;
2061;SDS011;11070;51.336;12.340;2022-11-20T09:03:21;29.33;;;18.90;;
2061;SDS011;11070;51.336;12.340;2022-11-20T09:05:48;29.55;;;18.77;;
2061;SDS011;11070;51.336;12.340;2022-11-20T09:08:14;27.30;;;17.80;;
2061;SDS011;11070;51.336;12.340;2022-11-20T09:10:41;27.35;;;17.77;;
2061;SDS011;11070;51.336;12.340;2022-11-20T09:13:07;26.80;;;17.77;;
2061;SDS011;11070;51.336;12.340;2022-11-20T09:15:33;26.88;;;17.55;;
2061;SDS011;11070;51.336;12.340;2022-11-20T09:18:02;27.60;;;17.70;;
2061;SDS011;11070;51.336;12.340;2022-11-20T09:20:30;26.10;;;17.85;;
2061;SDS011;11070;51.336;12.340;2022-11-20T09:22:57;27.73;;;17.00;;
2061;SDS011;11070;51.336;12.340;2022-11-20T09:25:23;27.90;;;16.88;;
2061;SDS011;11070;51.336;12.340;2022-11-20T09:27:54;27.27;;;17.35;;
2061;SDS011;11070;51.336;12.340;2022-11-20T09:30:21;26.58;;;17.55;;
2061;SDS011;11070;51.336;12.340;2022-11-20T09:32:47;24.07;;;16.13;;
2061;SDS011;11070;51.336;12.340;2022-11-20T09:35:13;25.67;;;16.53;;
2061;SDS011;11070;51.336;12.340;2022-11-20T09:38:04;27.02;;;17.80;;
2061;SDS011;11070;51.336;12.340;2022-11-20T09:40:36;27.20;;;18.65;;
2061;SDS011;11070;51.336;12.340;2022-11-20T09:43:13;29.35;;;17.95;;
2061;SDS011;11070;51.336;12.340;2022-11-20T09:46:13;28.17;;;17.50;;
2061;SDS011;11070;51.336;12.340;2022-11-20T09:48:55;28.27;;;17.38;;
2061;SDS011;11070;51.336;12.340;2022-11-20T09:54:11;25.08;;;16.80;;
2061;SDS011;11070;51.336;12.340;2022-11-20T09:56:48;28.10;;;17.85;;
2061;SDS011;11070;51.336;12.340;2022-11-20T09:59:26;26.45;;;16.73;;
2061;SDS011;11070;51.336;12.340;2022-11-20T10:01:54;26.35;;;16.58;;
2061;SDS011;11070;51.336;12.340;2022-11-20T10:04:22;27.13;;;15.90;;
2061;SDS011;11070;51.336;12.340;2022-11-20T10:06:56;26.70;;;17.17;;
2061;SDS011;11070;51.336;12.340;2022-11-20T10:09:35;26.88;;;17.55;;
2061;SDS011;11070;51.336;12.340;2022-11-20T10:12:14;28.52;;;18.90;;
2061;SDS011;11070;51.336;12.340;2022-11-20T10:15:09;24.88;;;15.85;;
2061;SDS011;11070;51.336;12.340;2022-11-20T10:18:07;25.98;;;17.30;;
2061;SDS011;11070;51.336;12.340;2022-11-20T10:31:59;25.95;;;17.23;;
2061;SDS011;11070;51.336;12.340;2022-11-20T10:43:01;29.52;;;18.38;;
2061;SDS011;11070;51.336;12.340;2022-11-20T10:54:25;25.13;;;14.75;;
2061;SDS011;11070;51.336;12.340;2022-11-20T11:01:02;24.98;;;15.70;;
2061;SDS011;11070;51.336;12.340;2022-11-20T11:03:42;24.38;;;15.30;;
2061;SDS011;11070;51.336;12.340;2022-11-20T11:06:42;23.77;;;14.18;;
2061;SDS011;11070;51.336;12.340;2022-11-20T11:09:29;23.35;;;14.73;;
2061;SDS011;11070;51.336;12.340;2022-11-20T11:12:08;23.48;;;14.55;;
2061;SDS011;11070;51.336;12.340;2022-11-20T11:15:11;20.60;;;12.55;;
2061;SDS011;11070;51.336;12.340;2022-11-20T11:17:48;22.48;;;13.30;;
2061;SDS011;11070;51.336;12.340;2022-11-20T11:20:24;18.30;;;11.43;;
2061;SDS011;11070;51.336;12.340;2022-11-20T11:22:59;20.42;;;12.43;;
2061;SDS011;11070;51.336;12.340;2022-11-20T11:25:33;19.85;;;12.60;;
2061;SDS011;11070;51.336;12.340;2022-11-20T11:28:04;18.50;;;11.93;;
2061;SDS011;11070;51.336;12.340;2022-11-20T11:30:56;18.50;;;11.70;;
2061;SDS011;11070;51.336;12.340;2022-11-20T11:33:27;14.75;;;10.40;;
2061;SDS011;11070;51.336;12.340;2022-11-20T11:39:36;16.33;;;10.35;;
2061;SDS011;11070;51.336;12.340;2022-11-20T11:42:31;14.50;;;10.48;;
2061;SDS011;11070;51.336;12.340;2022-11-20T11:44:58;16.63;;;10.80;;
2061;SDS011;11070;51.336;12.340;2022-11-20T11:47:38;17.15;;;11.90;;
2061;SDS011;11070;51.336;12.340;2022-11-20T11:50:18;14.38;;;10.88;;
2061;SDS011;11070;51.336;12.340;2022-11-20T11:52:58;16.88;;;10.85;;
2061;SDS011;11070;51.336;12.340;2022-11-20T12:03:39;15.77;;;11.52;;
2061;SDS011;11070;51.336;12.340;2022-11-20T12:06:18;15.45;;;11.10;;
2061;SDS011;11070;51.336;12.340;2022-11-20T12:17:00;19.73;;;11.43;;
2061;SDS011;11070;51.336;12.340;2022-11-20T12:19:38;15.90;;;11.35;;
2061;SDS011;11070;51.336;12.340;2022-11-20T12:22:35;17.10;;;11.25;;
2061;SDS011;11070;51.336;12.340;2022-11-20T12:25:18;15.20;;;11.30;;
2061;SDS011;11070;51.336;12.340;2022-11-20T12:37:33;18.23;;;12.52;;
2061;SDS011;11070;51.336;12.340;2022-11-20T12:56:26;20.55;;;11.07;;
2061;SDS011;11070;51.336;12.340;2022-11-20T13:07:31;17.70;;;11.40;;
2061;SDS011;11070;51.336;12.340;2022-11-20T13:10:00;19.30;;;11.98;;
2061;SDS011;11070;51.336;12.340;2022-11-20T13:12:31;18.98;;;12.77;;
2061;SDS011;11070;51.336;12.340;2022-11-20T13:15:33;15.07;;;10.60;;
2061;SDS011;11070;51.336;12.340;2022-11-20T13:18:15;15.80;;;11.43;;
2061;SDS011;11070;51.336;12.340;2022-11-20T13:21:41;14.70;;;10.13;;
2061;SDS011;11070;51.336;12.340;2022-11-20T13:27:01;17.38;;;11.73;;
2061;SDS011;11070;51.336;12.340;2022-11-20T13:29:34;17.02;;;11.93;;
2061;SDS011;11070;51.336;12.340;2022-11-20T13:34:37;18.48;;;12.95;;
2061;SDS011;11070;51.336;12.340;2022-11-20T13:37:02;19.20;;;12.47;;
2061;SDS011;11070;51.336;12.340;2022-11-20T13:39:33;18.85;;;12.40;;
2061;SDS011;11070;51.336;12.340;2022-11-20T13:42:02;21.13;;;11.88;;
2061;SDS011;11070;51.336;12.340;2022-11-20T13:44:39;19.15;;;12.27;;
2061;SDS011;11070;51.336;12.340;2022-11-20T13:47:23;19.60;;;11.95;;
2061;SDS011;11070;51.336;12.340;2022-11-20T13:49:51;18.80;;;12.27;;
2061;SDS011;11070;51.336;12.340;2022-11-20T14:01:05;14.85;;;10.32;;
2061;SDS011;11070;51.336;12.340;2022-11-20T14:03:46;14.95;;;9.63;;
2061;SDS011;11070;51.336;12.340;2022-11-20T14:06:55;16.13;;;10.68;;
2061;SDS011;11070;51.336;12.340;2022-11-20T14:09:11;15.13;;;10.85;;
2061;SDS011;11070;51.336;12.340;2022-11-20T14:11:45;17.63;;;11.68;;
2061;SDS011;11070;51.336;12.340;2022-11-20T14:14:15;15.68;;;11.32;;
2061;SDS011;11070;51.336;12.340;2022-11-20T14:17:09;15.98;;;11.10;;
2061;SDS011;11070;51.336;12.340;2022-11-20T14:20:07;18.23;;;12.32;;
2061;SDS011;11070;51.336;12.340;2022-11-20T14:22:39;21.20;;;13.40;;
2061;SDS011;11070;51.336;12.340;2022-11-20T14:25:19;18.48;;;12.70;;
2061;SDS011;11070;51.336;12.340;2022-11-20T14:30:25;17.80;;;12.68;;
2061;SDS011;11070;51.336;12.340;2022-11-20T14:33:14;19.33;;;12.60;;
2061;SDS011;11070;51.336;12.340;2022-11-20T14:35:46;17.45;;;12.23;;
2061;SDS011;11070;51.336;12.340;2022-11-20T14:38:14;19.98;;;13.35;;
2061;SDS011;11070;51.336;12.340;2022-11-20T14:40:48;19.48;;;13.38;;
2061;SDS011;11070;51.336;12.340;2022-11-20T14:43:26;22.48;;;14.02;;
2061;SDS011;11070;51.336;12.340;2022-11-20T14:48:31;21.58;;;13.43;;
2061;SDS011;11070;51.336;12.340;2022-11-20T14:51:04;21.50;;;13.65;;
2061;SDS011;11070;51.336;12.340;2022-11-20T14:53:30;24.57;;;15.00;;
2061;SDS011;11070;51.336;12.340;2022-11-20T14:55:57;20.23;;;13.90;;
2061;SDS011;11070;51.336;12.340;2022-11-20T14:58:27;20.40;;;13.13;;
2061;SDS011;11070;51.336;12.340;2022-11-20T15:03:32;26.05;;;14.27;;
2061;SDS011;11070;51.336;12.340;2022-11-20T15:06:00;25.02;;;14.90;;
2061;SDS011;11070;51.336;12.340;2022-11-20T15:08:26;24.98;;;16.08;;
2061;SDS011;11070;51.336;12.340;2022-11-20T15:10:57;22.45;;;14.90;;
2061;SDS011;11070;51.336;12.340;2022-11-20T15:13:26;29.13;;;17.30;;
2061;SDS011;11070;51.336;12.340;2022-11-20T15:15:56;22.48;;;15.80;;
2061;SDS011;11070;51.336;12.340;2022-11-20T15:21:03;26.92;;;15.15;;
2061;SDS011;11070;51.336;12.340;2022-11-20T15:23:29;21.38;;;15.32;;
2061;SDS011;11070;51.336;12.340;2022-11-20T15:25:56;28.13;;;15.07;;
2061;SDS011;11070;51.336;12.340;2022-11-20T15:28:23;24.17;;;15.53;;
2061;SDS011;11070;51.336;12.340;2022-11-20T15:31:00;25.35;;;15.15;;
2061;SDS011;11070;51.336;12.340;2022-11-20T15:33:28;31.33;;;17.33;;
2061;SDS011;11070;51.336;12.340;2022-11-20T15:35:55;24.15;;;15.35;;
2061;SDS011;11070;51.336;12.340;2022-11-20T15:38:22;27.08;;;15.82;;
2061;SDS011;11070;51.336;12.340;2022-11-20T15:40:47;26.07;;;15.40;;
2061;SDS011;11070;51.336;12.340;2022-11-20T15:43:16;24.80;;;16.33;;
2061;SDS011;11070;51.336;12.340;2022-11-20T15:49:02;27.45;;;16.85;;
2061;SDS011;11070;51.336;12.340;2022-11-20T15:54:39;25.88;;;16.52;;
2061;SDS011;11070;51.336;12.340;2022-11-20T15:57:15;26.33;;;16.35;;
2061;SDS011;11070;51.336;12.340;2022-11-20T15:59:41;28.95;;;17.90;;
2061;SDS011;11070;51.336;12.340;2022-11-20T16:02:40;30.27;;;17.70;;
2061;SDS011;11070;51.336;12.340;2022-11-20T16:05:30;28.80;;;16.55;;
2061;SDS011;11070;51.336;12.340;2022-11-20T16:08:05;28.95;;;17.30;;
2061;SDS011;11070;51.336;12.340;2022-11-20T16:10:32;28.73;;;18.00;;
2061;SDS011;11070;51.336;12.340;2022-11-20T16:16:34;29.75;;;16.92;;
2061;SDS011;11070;51.336;12.340;2022-11-20T16:19:17;27.23;;;16.95;;
2061;SDS011;11070;51.336;12.340;2022-11-20T16:21:47;26.90;;;17.02;;
2061;SDS011;11070;51.336;12.340;2022-11-20T16:24:35;28.98;;;18.05;;
2061;SDS011;11070;51.336;12.340;2022-11-20T16:27:09;31.33;;;18.33;;
2061;SDS011;11070;51.336;12.340;2022-11-20T16:29:43;30.13;;;18.00;;
2061;SDS011;11070;51.336;12.340;2022-11-20T16:32:21;30.38;;;17.60;;
2061;SDS011;11070;51.336;12.340;2022-11-20T16:34:47;28.80;;;16.58;;
2061;SDS011;11070;51.336;12.340;2022-11-20T16:37:14;33.67;;;19.17;;
2061;SDS011;11070;51.336;12.340;2022-11-20T16:39:41;34.23;;;19.30;;
2061;SDS011;11070;51.336;12.340;2022-11-20T16:42:07;32.72;;;20.08;;
2061;SDS011;11070;51.336;12.340;2022-11-20T16:44:33;31.77;;;18.55;;
2061;SDS011;11070;51.336;12.340;2022-11-20T16:46:59;36.40;;;20.25;;
2061;SDS011;11070;51.336;12.340;2022-11-20T16:49:25;32.83;;;18.25;;
2061;SDS011;11070;51.336;12.340;2022-11-20T16:51:53;37.22;;;20.50;;
2061;SDS011;11070;51.336;12.340;2022-11-20T16:54:20;33.92;;;19.65;;
2061;SDS011;11070;51.336;12.340;2022-11-20T16:56:46;34.90;;;19.53;;
2061;SDS011;11070;51.336;12.340;2022-11-20T16:59:15;40.65;;;21.50;;
2061;SDS011;11070;51.336;12.340;2022-11-20T17:01:43;43.17;;;23.15;;
2061;SDS011;11070;51.336;12.340;2022-11-20T17:04:09;38.78;;;22.05;;
2061;SDS011;11070;51.336;12.340;2022-11-20T17:06:38;43.22;;;23.40;;
2061;SDS011;11070;51.336;12.340;2022-11-20T17:09:08;43.78;;;22.88;;